Time;durP1;ratioP1;P1;durP2;ratioP2;P2;SDS_P1;SDS_P2;PMS_P1;PMS_P2;Temp;Humidity;BMP_temperature;BMP_pressure;BME280_temperature;BME280_humidity;BME280_pressure;Samples;Min_cycle;Max_cycle;Signal;HPM_P1;HPM_P2
2021/10/28 00:12:35;;;;;;;13.13;9.77;;;10.90;98.00;;;;;;5028210;28;20042;-85
2021/10/28 00:15:05;;;;;;;12.52;9.38;;;10.80;97.80;;;;;;5024239;28;20076;-86
2021/10/28 00:17:58;;;;;;;14.00;10.93;;;10.80;97.70;;;;;;5032564;28;20421;-85
2021/10/28 00:20:24;;;;;;;15.65;11.18;;;10.80;97.80;;;;;;5031470;28;20049;-85
2021/10/28 00:22:50;;;;;;;18.85;11.63;;;10.80;97.90;;;;;;5031825;28;20497;-84
2021/10/28 00:25:18;;;;;;;12.68;9.43;;;10.80;97.90;;;;;;5032132;28;20110;-86
2021/10/28 00:27:43;;;;;;;15.02;11.32;;;10.80;97.80;;;;;;5031721;28;20095;-85
2021/10/28 00:30:09;;;;;;;14.25;11.10;;;10.80;97.90;;;;;;5031653;28;20148;-84
2021/10/28 00:32:35;;;;;;;17.02;9.93;;;10.80;97.90;;;;;;5031687;28;20050;-84
2021/10/28 00:35:05;;;;;;;16.05;11.38;;;10.80;97.80;;;;;;5031854;28;20058;-85
2021/10/28 00:37:31;;;;;;;14.48;10.23;;;10.70;97.80;;;;;;5032245;28;20491;-85
2021/10/28 00:39:56;;;;;;;15.00;10.55;;;10.80;98.10;;;;;;5030364;28;20132;-85
2021/10/28 00:42:22;;;;;;;14.85;10.68;;;10.70;97.90;;;;;;5031860;28;20401;-85
2021/10/28 00:44:48;;;;;;;14.10;10.13;;;10.70;97.80;;;;;;5032125;28;20124;-85
2021/10/28 00:47:14;;;;;;;13.90;10.20;;;10.70;97.80;;;;;;5030896;28;20187;-85
2021/10/28 00:49:39;;;;;;;18.45;11.68;;;10.70;97.80;;;;;;5032056;28;20045;-85
2021/10/28 00:52:05;;;;;;;17.20;10.82;;;10.70;97.80;;;;;;5031669;28;20103;-85
2021/10/28 00:54:31;;;;;;;13.23;10.10;;;10.60;97.80;;;;;;5031570;28;20049;-85
2021/10/28 00:56:58;;;;;;;12.98;10.27;;;10.60;97.80;;;;;;5031854;28;20043;-84
2021/10/28 00:59:24;;;;;;;12.23;9.77;;;10.60;97.90;;;;;;5031799;28;20484;-85
2021/10/28 01:01:49;;;;;;;12.60;9.75;;;10.60;97.90;;;;;;5031202;28;20068;-86
2021/10/28 01:04:15;;;;;;;15.07;10.98;;;10.60;97.80;;;;;;5031455;28;20045;-84
2021/10/28 01:06:41;;;;;;;14.13;10.73;;;10.60;97.90;;;;;;5032069;28;20042;-84
2021/10/28 01:09:07;;;;;;;16.27;11.15;;;10.60;98.00;;;;;;5030831;28;20408;-84
2021/10/28 01:11:33;;;;;;;16.17;11.57;;;10.60;98.10;;;;;;5031093;28;20045;-85
2021/10/28 01:13:59;;;;;;;13.88;10.32;;;10.50;98.20;;;;;;5028257;28;20042;-85
2021/10/28 01:16:25;;;;;;;16.80;11.57;;;10.50;98.20;;;;;;5030587;28;20049;-84
2021/10/28 01:18:51;;;;;;;15.18;10.65;;;10.50;98.30;;;;;;5031670;28;20037;-84
2021/10/28 01:21:17;;;;;;;14.10;10.38;;;10.50;98.20;;;;;;5031012;28;20049;-84
2021/10/28 01:23:44;;;;;;;19.25;11.13;;;10.50;98.20;;;;;;5031068;28;20042;-85
2021/10/28 01:26:13;;;;;;;17.25;11.38;;;10.50;98.30;;;;;;5031059;28;20144;-85
2021/10/28 01:29:05;;;;;;;14.68;10.38;;;10.50;98.30;;;;;;5031484;28;20124;-85
2021/10/28 01:31:34;;;;;;;14.60;11.57;;;10.50;98.10;;;;;;5044245;28;20507;-85
2021/10/28 01:34:04;;;;;;;16.88;11.40;;;10.50;98.20;;;;;;5054222;28;20112;-84
2021/10/28 01:36:30;;;;;;;21.20;12.88;;;10.50;98.30;;;;;;5038141;28;20079;-84
2021/10/28 01:38:56;;;;;;;16.60;12.00;;;10.50;98.30;;;;;;5056341;28;20068;-85
2021/10/28 01:41:23;;;;;;;17.40;11.65;;;10.50;98.40;;;;;;5038194;28;20048;-84
2021/10/28 01:43:53;;;;;;;14.45;10.85;;;10.50;98.40;;;;;;5037564;28;20049;-84
2021/10/28 01:46:22;;;;;;;18.98;13.23;;;10.50;98.40;;;;;;5038325;28;20040;-85
2021/10/28 01:48:47;;;;;;;18.60;11.48;;;10.50;98.40;;;;;;5039036;28;20393;-85
2021/10/28 01:51:18;;;;;;;14.80;10.73;;;10.50;98.50;;;;;;5037317;28;20040;-84
2021/10/28 01:53:44;;;;;;;14.43;10.07;;;10.50;98.40;;;;;;5039103;28;20550;-85
2021/10/28 01:56:10;;;;;;;14.90;11.32;;;10.40;98.30;;;;;;5055956;28;20045;-85
2021/10/28 01:58:35;;;;;;;13.85;10.80;;;10.40;98.30;;;;;;5037771;28;20420;-85
2021/10/28 02:01:02;;;;;;;19.52;12.43;;;10.40;98.30;;;;;;5038194;28;20051;-85
2021/10/28 02:03:28;;;;;;;15.95;11.05;;;10.40;98.30;;;;;;5038623;28;20048;-85
2021/10/28 02:05:55;;;;;;;15.27;10.75;;;10.40;98.30;;;;;;5033082;28;21784;-84
2021/10/28 02:08:20;;;;;;;17.15;11.07;;;10.40;98.30;;;;;;5031342;28;20090;-85
2021/10/28 02:10:46;;;;;;;14.57;9.95;;;10.40;98.30;;;;;;5030470;28;20045;-85
2021/10/28 02:13:13;;;;;;;15.40;10.95;;;10.30;98.30;;;;;;5045826;28;20473;-84
2021/10/28 02:15:40;;;;;;;13.48;10.38;;;10.40;98.30;;;;;;5033316;28;20072;-84
2021/10/28 02:18:06;;;;;;;15.48;11.05;;;10.30;98.30;;;;;;5027677;28;20508;-84
2021/10/28 02:20:32;;;;;;;12.82;9.90;;;10.30;98.30;;;;;;5029652;28;20103;-84
2021/10/28 02:22:58;;;;;;;14.50;10.63;;;10.30;98.30;;;;;;5055675;28;20047;-85
2021/10/28 02:25:24;;;;;;;14.38;10.77;;;10.30;98.30;;;;;;5037639;28;20396;-84
2021/10/28 02:27:50;;;;;;;17.50;11.57;;;10.30;98.20;;;;;;5055774;28;20128;-85
2021/10/28 02:30:16;;;;;;;17.75;11.63;;;10.30;98.30;;;;;;5054831;28;20612;-84
2021/10/28 02:32:42;;;;;;;17.75;10.77;;;10.30;98.40;;;;;;5036665;28;20500;-84
2021/10/28 02:35:08;;;;;;;16.20;10.85;;;10.30;98.40;;;;;;5019593;28;20052;-85
2021/10/28 02:37:34;;;;;;;16.58;11.00;;;10.30;98.30;;;;;;5030532;28;20083;-85
2021/10/28 02:40:00;;;;;;;14.20;10.90;;;10.30;98.20;;;;;;5036841;28;20420;-85
2021/10/28 02:42:26;;;;;;;15.65;10.90;;;10.20;98.30;;;;;;5037416;28;20052;-85
2021/10/28 02:44:51;;;;;;;20.40;11.75;;;10.30;98.40;;;;;;5037055;28;20048;-86
2021/10/28 02:47:17;;;;;;;18.15;11.45;;;10.20;98.40;;;;;;5036379;28;20119;-85
2021/10/28 02:49:43;;;;;;;15.63;10.52;;;10.20;98.50;;;;;;5037182;28;20047;-85
2021/10/28 02:52:09;;;;;;;17.60;12.20;;;10.20;98.60;;;;;;5055383;28;20064;-85
2021/10/28 02:54:37;;;;;;;16.40;11.10;;;10.20;98.60;;;;;;5036933;28;20114;-85
2021/10/28 02:57:06;;;;;;;18.98;12.52;;;10.20;98.60;;;;;;5036895;28;20045;-86
2021/10/28 02:59:33;;;;;;;15.00;11.10;;;10.20;98.70;;;;;;5038001;28;20040;-84
2021/10/28 03:01:59;;;;;;;12.80;10.18;;;10.20;98.70;;;;;;5035928;28;20377;-84
2021/10/28 03:04:25;;;;;;;18.63;11.80;;;10.20;98.70;;;;;;5036979;28;20056;-86
2021/10/28 03:06:52;;;;;;;13.07;10.82;;;10.20;98.70;;;;;;5036919;28;20037;-85
2021/10/28 03:09:26;;;;;;;16.20;11.75;;;10.20;98.80;;;;;;5036069;28;20045;-86
2021/10/28 03:11:55;;;;;;;18.33;12.15;;;10.20;98.80;;;;;;5036853;28;20040;-86
2021/10/28 03:14:27;;;;;;;14.80;11.27;;;10.20;98.80;;;;;;5036440;28;20048;-85
2021/10/28 03:16:59;;;;;;;17.13;11.30;;;10.20;98.80;;;;;;5036915;28;20045;-85
2021/10/28 03:27:29;;;;;;;14.68;10.27;;;10.20;98.80;;;;;;5036476;28;20049;-86
2021/10/28 03:29:58;;;;;;;14.30;10.75;;;10.10;98.80;;;;;;5035954;28;20056;-86
2021/10/28 03:32:28;;;;;;;17.00;11.02;;;10.10;98.80;;;;;;5054141;28;20098;-85
2021/10/28 03:34:54;;;;;;;16.38;11.57;;;10.20;98.90;;;;;;5036528;28;20045;-85
2021/10/28 03:37:26;;;;;;;18.00;11.55;;;10.10;98.90;;;;;;5034861;28;20057;-86
2021/10/28 03:40:10;;;;;;;15.02;10.65;;;10.10;98.90;;;;;;5036045;28;20041;-85
2021/10/28 03:43:11;;;;;;;14.25;9.55;;;10.10;98.90;;;;;;5035705;28;20120;-85
2021/10/28 03:56:38;;;;;;;14.23;9.95;;;10.10;98.70;;;;;;5035892;28;20087;-85
2021/10/28 04:01:50;;;;;;;14.70;10.32;;;10.00;98.60;;;;;;5053845;28;20084;-85
2021/10/28 04:04:39;;;;;;;16.60;11.35;;;10.00;98.60;;;;;;5034257;28;20556;-85
2021/10/28 04:20:55;;;;;;;14.55;10.27;;;9.90;98.70;;;;;;5036179;28;20080;-85
2021/10/28 04:28:53;;;;;;;12.98;9.63;;;9.90;98.70;;;;;;5035337;28;20455;-85
2021/10/28 04:29:05;;;;;;;16.17;10.77;;;9.90;98.70;;;;;;5034800;28;20071;-86
2021/10/28 04:31:37;;;;;;;14.18;10.20;;;9.90;98.80;;;;;;5034827;28;20098;-85
2021/10/28 04:34:10;;;;;;;15.23;9.95;;;9.80;98.90;;;;;;5035528;28;20505;-85
2021/10/28 04:36:36;;;;;;;16.08;10.48;;;9.80;98.90;;;;;;5036000;28;20045;-85
2021/10/28 04:39:06;;;;;;;15.02;9.55;;;9.80;98.90;;;;;;5034107;28;20366;-85
2021/10/28 04:41:32;;;;;;;12.63;9.23;;;9.80;98.90;;;;;;5035775;28;20480;-85
2021/10/28 04:43:58;;;;;;;15.07;10.07;;;9.80;98.80;;;;;;5035071;28;20128;-85
2021/10/28 04:46:23;;;;;;;12.20;10.07;;;9.80;98.80;;;;;;5034267;28;21393;-85
2021/10/28 04:48:49;;;;;;;16.45;10.63;;;9.80;98.80;;;;;;5035561;28;20076;-85
2021/10/28 04:51:15;;;;;;;13.85;10.40;;;9.80;98.80;;;;;;5034597;28;20059;-84
2021/10/28 04:53:40;;;;;;;17.75;9.88;;;9.80;98.90;;;;;;5034728;28;20460;-85
2021/10/28 04:56:06;;;;;;;13.48;9.75;;;9.80;98.90;;;;;;5035154;28;20058;-85
2021/10/28 04:58:32;;;;;;;12.88;9.40;;;9.80;98.90;;;;;;5035087;28;20041;-84
2021/10/28 05:00:57;;;;;;;14.05;9.90;;;9.80;98.80;;;;;;5033967;28;20043;-86
2021/10/28 05:03:23;;;;;;;13.98;10.00;;;9.80;98.80;;;;;;5034988;28;20037;-85
2021/10/28 05:05:48;;;;;;;15.45;9.90;;;9.80;98.80;;;;;;5034931;28;20516;-85
2021/10/28 05:08:14;;;;;;;12.63;9.63;;;9.80;98.80;;;;;;5032239;28;20033;-86
2021/10/28 05:10:43;;;;;;;16.67;10.05;;;9.80;98.80;;;;;;5038496;28;20043;-86
2021/10/28 05:13:15;;;;;;;15.88;9.60;;;9.70;98.80;;;;;;5038698;28;20139;-86
2021/10/28 05:15:45;;;;;;;11.88;9.00;;;9.70;98.80;;;;;;5038378;28;20515;-86
2021/10/28 05:18:12;;;;;;;14.20;9.65;;;9.70;98.80;;;;;;5038360;28;20045;-86
2021/10/28 05:20:38;;;;;;;16.33;9.45;;;9.70;98.80;;;;;;5056125;28;20044;-86
2021/10/28 05:23:03;;;;;;;11.63;9.07;;;9.70;98.70;;;;;;5054844;28;20404;-88
2021/10/28 05:25:29;;;;;;;13.95;9.00;;;9.70;98.70;;;;;;5039742;28;20496;-86
2021/10/28 05:27:55;;;;;;;16.17;10.35;;;9.70;98.70;;;;;;5037928;28;20500;-83
2021/10/28 05:30:20;;;;;;;13.50;8.40;;;9.70;98.60;;;;;;5038980;28;20088;-84
2021/10/28 05:32:46;;;;;;;14.98;9.35;;;9.60;98.60;;;;;;5038786;28;20076;-84
2021/10/28 05:35:15;;;;;;;14.02;9.35;;;9.60;98.60;;;;;;5038307;28;20168;-85
2021/10/28 05:37:41;;;;;;;13.93;9.50;;;9.60;98.70;;;;;;5039375;28;20037;-88
2021/10/28 05:40:07;;;;;;;18.15;10.45;;;9.60;98.70;;;;;;5038352;28;20045;-90
2021/10/28 05:42:32;;;;;;;10.38;8.32;;;9.60;98.60;;;;;;5039843;28;20401;-91
2021/10/28 05:44:58;;;;;;;13.00;9.43;;;9.60;98.60;;;;;;5027238;28;20053;-91
2021/10/28 05:47:24;;;;;;;11.77;8.77;;;9.60;98.60;;;;;;5032821;28;20179;-91
2021/10/28 05:49:49;;;;;;;14.52;9.82;;;9.50;98.60;;;;;;5055256;28;20048;-91
2021/10/28 05:52:18;;;;;;;12.05;8.90;;;9.50;98.60;;;;;;5048511;28;20037;-93
2021/10/28 05:54:44;;;;;;;16.02;10.07;;;9.50;98.60;;;;;;5058105;28;20052;-91
2021/10/28 05:57:09;;;;;;;11.85;8.93;;;9.50;98.60;;;;;;5025425;28;20056;-91
2021/10/28 05:59:35;;;;;;;14.25;9.73;;;9.50;98.70;;;;;;5040227;28;20067;-91
2021/10/28 06:02:00;;;;;;;12.90;9.40;;;9.50;98.60;;;;;;5039724;28;20121;-91
2021/10/28 06:04:26;;;;;;;12.88;9.60;;;9.50;98.60;;;;;;5039288;28;20075;-91
2021/10/28 06:06:52;;;;;;;10.98;9.07;;;9.50;98.70;;;;;;5056359;28;20071;-91
2021/10/28 06:09:17;;;;;;;13.80;9.98;;;9.50;98.80;;;;;;5039809;28;20472;-91
2021/10/28 06:11:43;;;;;;;11.23;9.13;;;9.50;98.80;;;;;;5039676;28;20041;-91
2021/10/28 06:14:08;;;;;;;13.35;9.85;;;9.50;98.70;;;;;;5034629;28;20069;-90
2021/10/28 06:16:39;;;;;;;11.25;8.98;;;9.40;98.70;;;;;;5021739;28;20451;-91
2021/10/28 06:19:04;;;;;;;12.95;9.15;;;9.40;98.70;;;;;;5033892;28;20087;-92
2021/10/28 06:21:30;;;;;;;13.65;10.00;;;9.40;98.60;;;;;;5038182;28;20033;-91
2021/10/28 06:23:55;;;;;;;12.45;9.57;;;9.40;98.70;;;;;;5039116;28;20082;-91
2021/10/28 06:26:21;;;;;;;16.90;12.27;;;9.40;98.70;;;;;;5023710;28;20041;-90
2021/10/28 06:28:47;;;;;;;19.00;11.15;;;9.40;98.80;;;;;;5042314;28;20046;-91
2021/10/28 06:31:16;;;;;;;15.45;10.73;;;9.40;98.80;;;;;;5052061;28;20061;-90
2021/10/28 06:33:48;;;;;;;15.50;11.00;;;9.40;98.80;;;;;;5055752;28;20091;-90
2021/10/28 06:36:19;;;;;;;13.70;9.50;;;9.40;98.80;;;;;;5036552;28;20128;-92
2021/10/28 06:38:45;;;;;;;14.00;10.23;;;9.40;98.80;;;;;;5038939;28;20048;-90
2021/10/28 06:41:11;;;;;;;17.63;11.05;;;9.40;98.80;;;;;;5037736;28;20044;-89
2021/10/28 06:43:37;;;;;;;17.60;11.52;;;9.40;98.80;;;;;;5038062;28;20496;-90
2021/10/28 06:46:02;;;;;;;15.30;10.88;;;9.30;98.80;;;;;;5038072;28;20052;-89
2021/10/28 06:48:31;;;;;;;18.42;11.10;;;9.30;98.80;;;;;;5056931;28;20045;-89
2021/10/28 06:50:58;;;;;;;18.00;12.93;;;9.30;98.80;;;;;;5054516;28;20099;-89
2021/10/28 06:53:26;;;;;;;18.25;11.73;;;9.30;98.80;;;;;;5029805;28;20080;-90
2021/10/28 07:03:49;;;;;;;17.58;11.95;;;9.30;98.60;;;;;;5038185;28;20076;-89
2021/10/28 07:06:20;;;;;;;18.92;12.13;;;9.30;98.60;;;;;;5037957;28;20049;-89
2021/10/28 07:08:48;;;;;;;19.80;12.93;;;9.20;98.60;;;;;;5055849;28;20045;-89
2021/10/28 07:11:23;;;;;;;17.80;11.70;;;9.20;98.60;;;;;;5038167;28;20082;-89
2021/10/28 07:13:51;;;;;;;19.23;12.32;;;9.20;98.60;;;;;;5037419;28;20110;-89
2021/10/28 07:16:29;;;;;;;21.33;12.30;;;9.20;98.60;;;;;;5037918;28;20049;-89
2021/10/28 07:19:01;;;;;;;17.73;12.40;;;9.20;98.60;;;;;;5055767;28;20052;-89
2021/10/28 07:39:46;;;;;;;19.83;12.63;;;9.30;98.80;;;;;;5056246;28;20049;-89
2021/10/28 07:58:50;;;;;;;18.33;12.68;;;9.50;99.00;;;;;;5036777;28;20076;-87
2021/10/28 08:15:07;;;;;;;21.52;12.88;;;9.80;99.00;;;;;;5036134;28;20051;-88
2021/10/28 08:17:42;;;;;;;21.35;13.38;;;9.80;99.10;;;;;;5035148;28;20049;-85
2021/10/28 08:20:16;;;;;;;20.45;13.35;;;9.90;99.10;;;;;;5035845;28;20056;-85
2021/10/28 08:22:48;;;;;;;18.23;13.00;;;9.90;99.10;;;;;;5036509;28;20489;-86
2021/10/28 08:30:43;;;;;;;19.10;12.10;;;10.10;99.10;;;;;;5026837;28;20053;-84
2021/10/28 08:33:11;;;;;;;18.05;12.48;;;10.20;99.10;;;;;;5032433;28;20480;-85
2021/10/28 08:35:37;;;;;;;20.70;13.00;;;10.20;99.00;;;;;;5032622;28;20504;-85
2021/10/28 08:38:05;;;;;;;18.88;12.70;;;10.20;99.00;;;;;;5032669;28;20584;-85
2021/10/28 08:40:30;;;;;;;16.35;11.07;;;10.30;99.00;;;;;;5031502;28;20037;-85
2021/10/28 08:42:57;;;;;;;22.23;13.32;;;10.30;98.90;;;;;;5023861;28;20053;-84
2021/10/28 08:45:23;;;;;;;16.48;11.63;;;10.40;98.90;;;;;;5012301;28;20061;-84
2021/10/28 08:47:52;;;;;;;17.75;12.00;;;10.50;98.90;;;;;;5014229;28;20050;-85
2021/10/28 08:51:01;;;;;;;18.40;12.70;;;10.50;98.90;;;;;;5013710;28;20061;-85
2021/10/28 08:53:32;;;;;;;17.77;11.82;;;10.60;98.90;;;;;;5008690;28;20049;-85
2021/10/28 08:56:00;;;;;;;18.15;12.40;;;10.60;98.90;;;;;;5013811;28;20104;-85
2021/10/28 09:31:52;;;;;;;19.30;12.55;;;11.50;98.20;;;;;;5032217;28;20084;-91
2021/10/28 09:34:30;;;;;;;19.98;11.93;;;11.50;98.20;;;;;;5031598;28;20096;-88
2021/10/28 09:51:18;;;;;;;19.23;12.23;;;11.90;98.10;;;;;;4996665;28;20104;-88
2021/10/28 09:54:00;;;;;;;19.27;11.60;;;12.00;98.10;;;;;;5014049;28;20049;-87
2021/10/28 09:59:43;;;;;;;18.08;12.00;;;12.10;97.90;;;;;;5035115;28;20467;-87
2021/10/28 10:02:17;;;;;;;16.98;11.50;;;12.20;98.00;;;;;;5031327;28;20095;-87
2021/10/28 10:04:45;;;;;;;15.70;10.40;;;12.20;98.00;;;;;;5027830;28;20045;-87
2021/10/28 10:07:12;;;;;;;18.00;11.05;;;12.30;97.90;;;;;;5033184;28;20057;-87
2021/10/28 10:09:38;;;;;;;21.27;12.07;;;12.40;97.80;;;;;;5032152;28;20049;-88
2021/10/28 10:12:06;;;;;;;20.92;11.57;;;12.50;97.70;;;;;;5032402;28;20128;-89
2021/10/28 10:14:37;;;;;;;17.42;11.75;;;12.50;97.70;;;;;;5029061;28;20045;-88
2021/10/28 10:17:05;;;;;;;17.92;11.40;;;12.60;97.70;;;;;;5020758;28;20132;-89
2021/10/28 10:19:53;;;;;;;18.00;10.32;;;12.60;97.70;;;;;;5016358;28;20045;-86
2021/10/28 10:25:49;;;;;;;17.52;11.18;;;12.80;97.40;;;;;;4984071;28;20046;-88
2021/10/28 12:21:28;;;;;;;11.15;6.10;;;15.50;92.60;;;;;;5026604;28;20057;-82
2021/10/28 12:43:45;;;;;;;7.72;5.43;;;15.80;91.90;;;;;;5029621;28;20081;-82
2021/10/28 12:46:22;;;;;;;10.15;5.45;;;15.80;91.80;;;;;;5018178;28;20429;-82
2021/10/28 12:49:06;;;;;;;9.23;6.20;;;15.90;91.90;;;;;;5027849;28;20567;-83
2021/10/28 13:49:13;;;;;;;11.90;6.40;;;16.40;90.70;;;;;;5037368;28;20160;-89
2021/10/28 14:15:51;;;;;;;9.75;6.05;;;16.50;90.40;;;;;;5016430;28;20042;-88
2021/10/28 14:20:42;;;;;;;13.35;6.45;;;16.50;90.50;;;;;;5008462;28;20053;-92
2021/10/28 14:31:37;;;;;;;12.93;7.03;;;16.50;89.60;;;;;;5015953;28;20046;-92
2021/10/28 14:39:26;;;;;;;9.80;6.32;;;16.50;89.70;;;;;;5017929;28;20554;-89
2021/10/28 15:28:23;;;;;;;11.77;6.80;;;16.10;91.00;;;;;;5020626;28;20045;-88
2021/10/28 15:57:14;;;;;;;10.43;6.20;;;15.90;92.10;;;;;;5032964;28;20045;-89
2021/10/28 16:22:02;;;;;;;9.25;6.10;;;15.70;93.10;;;;;;5032645;28;20042;-88
2021/10/28 16:24:32;;;;;;;8.85;6.10;;;15.70;93.30;;;;;;5032959;28;20484;-85
2021/10/28 16:26:58;;;;;;;11.68;5.95;;;15.70;93.40;;;;;;5033850;28;20033;-84
2021/10/28 16:29:26;;;;;;;9.43;6.40;;;15.60;93.40;;;;;;5032829;28;20052;-86
2021/10/28 16:31:53;;;;;;;10.20;6.22;;;15.60;93.30;;;;;;5034221;28;20551;-84
2021/10/28 16:34:24;;;;;;;8.73;6.20;;;15.60;93.00;;;;;;5033881;28;20388;-85
2021/10/28 16:36:51;;;;;;;9.27;6.15;;;15.50;93.10;;;;;;5032194;28;20047;-83
2021/10/28 16:39:17;;;;;;;11.52;6.22;;;15.50;93.10;;;;;;5033422;28;20388;-85
2021/10/28 16:41:46;;;;;;;13.65;7.10;;;15.50;92.70;;;;;;5033274;28;20087;-87
2021/10/28 16:44:16;;;;;;;11.82;6.53;;;15.40;92.40;;;;;;5033118;28;20065;-85
2021/10/28 16:46:42;;;;;;;10.70;5.80;;;15.30;92.10;;;;;;5033998;28;20052;-87
2021/10/28 16:49:09;;;;;;;9.65;6.15;;;15.30;92.60;;;;;;5025379;28;20044;-86
2021/10/28 16:52:04;;;;;;;9.15;5.75;;;15.30;93.00;;;;;;5037288;22;20095;-87
2021/10/28 16:54:49;;;;;;;10.38;6.03;;;15.30;93.40;;;;;;5028403;28;20073;-87
2021/10/28 16:57:15;;;;;;;10.07;6.40;;;15.20;93.30;;;;;;5023000;22;20054;-88
2021/10/28 16:59:40;;;;;;;10.65;6.40;;;15.20;93.70;;;;;;5012441;28;20073;-89
2021/10/28 17:02:07;;;;;;;9.35;6.30;;;15.10;93.40;;;;;;5012044;28;20100;-87
2021/10/28 17:04:32;;;;;;;10.55;6.28;;;15.10;93.60;;;;;;5011167;28;20041;-92
2021/10/28 17:07:01;;;;;;;10.27;6.28;;;15.10;93.60;;;;;;5011650;28;20144;-93
2021/10/28 17:09:26;;;;;;;10.93;6.68;;;15.00;93.60;;;;;;5011215;28;20052;-91
2021/10/28 17:11:52;;;;;;;10.23;6.40;;;15.00;93.80;;;;;;5012792;28;20049;-91
2021/10/28 17:14:18;;;;;;;11.65;6.22;;;15.00;93.90;;;;;;5014885;28;20049;-93
2021/10/28 17:16:47;;;;;;;9.60;5.80;;;15.00;93.80;;;;;;5015352;28;20068;-93
2021/10/28 17:19:14;;;;;;;10.85;6.20;;;14.90;93.90;;;;;;5014356;28;20050;-91
2021/10/28 17:21:40;;;;;;;10.02;6.47;;;14.90;94.00;;;;;;5033168;28;20171;-93
2021/10/28 17:24:24;;;;;;;9.15;6.22;;;14.80;93.90;;;;;;5015482;28;20087;-90
2021/10/28 17:26:50;;;;;;;9.27;6.10;;;14.80;94.00;;;;;;5013804;28;20124;-90
2021/10/28 17:29:16;;;;;;;9.98;6.13;;;14.80;94.10;;;;;;5015424;28;20136;-93
2021/10/28 17:31:42;;;;;;;10.43;5.97;;;14.70;93.90;;;;;;5015772;28;20050;-93
2021/10/28 17:34:07;;;;;;;12.05;6.55;;;14.70;94.00;;;;;;5014459;28;20056;-91
2021/10/28 17:36:33;;;;;;;10.75;6.35;;;14.60;94.00;;;;;;5016608;28;20409;-92
2021/10/28 17:39:02;;;;;;;9.68;6.78;;;14.60;94.20;;;;;;5017207;28;20041;-91
2021/10/28 17:41:28;;;;;;;10.65;6.38;;;14.60;94.30;;;;;;5016268;28;20049;-92
2021/10/28 17:43:55;;;;;;;9.43;5.93;;;14.50;94.30;;;;;;5016885;28;20396;-92
2021/10/28 17:46:24;;;;;;;9.93;6.32;;;14.50;94.10;;;;;;5020191;28;20053;-90
2021/10/28 17:48:50;;;;;;;9.07;6.13;;;14.40;94.30;;;;;;5017143;28;20042;-91
2021/10/28 17:51:17;;;;;;;11.05;6.68;;;14.40;94.40;;;;;;5016129;28;20052;-92
2021/10/28 17:53:44;;;;;;;9.90;6.50;;;14.40;94.30;;;;;;5015689;28;20181;-91
2021/10/28 17:56:11;;;;;;;9.30;6.30;;;14.30;94.00;;;;;;5034013;28;20049;-92
2021/10/28 17:58:37;;;;;;;9.95;6.13;;;14.30;94.00;;;;;;5016674;28;20109;-92
2021/10/28 18:01:05;;;;;;;11.38;6.55;;;14.20;94.00;;;;;;5015389;28;20061;-93
2021/10/28 18:03:32;;;;;;;11.95;7.20;;;14.20;93.90;;;;;;5012693;28;20052;-93
2021/10/28 18:05:57;;;;;;;10.00;6.75;;;14.10;93.70;;;;;;5015700;28;20038;-93
2021/10/28 18:08:23;;;;;;;9.25;6.63;;;14.10;93.80;;;;;;5033055;28;20129;-93
2021/10/28 18:10:49;;;;;;;9.75;6.80;;;14.00;94.00;;;;;;5015302;28;20080;-92
2021/10/28 18:13:16;;;;;;;10.20;7.35;;;14.00;94.10;;;;;;5015665;28;20128;-93
2021/10/28 18:15:42;;;;;;;9.40;6.80;;;13.90;93.80;;;;;;5015167;28;20041;-89
2021/10/28 18:18:08;;;;;;;11.75;7.15;;;13.90;94.50;;;;;;5035591;28;20166;-90
2021/10/28 18:20:37;;;;;;;11.02;6.28;;;13.80;93.90;;;;;;5017911;28;20046;-93
2021/10/28 18:23:04;;;;;;;11.82;6.47;;;13.80;94.10;;;;;;5017574;28;20052;-91
2021/10/28 18:25:30;;;;;;;13.60;7.60;;;13.70;94.10;;;;;;5036063;28;20124;-94
2021/10/28 18:27:56;;;;;;;11.60;7.10;;;13.70;93.90;;;;;;5021942;28;20073;-95
2021/10/28 18:30:23;;;;;;;10.32;7.05;;;13.70;94.00;;;;;;5017287;28;20057;-89
2021/10/28 18:32:49;;;;;;;9.65;7.28;;;13.60;93.90;;;;;;5035226;28;20048;-92
2021/10/28 18:35:15;;;;;;;11.38;7.40;;;13.60;93.80;;;;;;5014121;28;20396;-91
2021/10/28 18:37:42;;;;;;;11.32;7.35;;;13.60;94.00;;;;;;5035326;28;20041;-89
2021/10/28 18:40:08;;;;;;;10.75;7.22;;;13.50;94.10;;;;;;5035104;28;20099;-89
2021/10/28 18:42:34;;;;;;;11.35;7.15;;;13.50;93.90;;;;;;5017565;28;20041;-89
2021/10/28 18:45:00;;;;;;;13.88;7.97;;;13.40;93.70;;;;;;5016203;28;20041;-90
2021/10/28 18:47:26;;;;;;;11.00;7.80;;;13.40;93.60;;;;;;5036062;28;20052;-89
2021/10/28 18:49:52;;;;;;;10.13;7.57;;;13.40;93.60;;;;;;5035864;28;20034;-89
2021/10/28 18:52:18;;;;;;;13.30;8.00;;;13.30;93.90;;;;;;5018080;28;20168;-91
2021/10/28 18:54:45;;;;;;;11.15;7.35;;;13.30;94.00;;;;;;5017539;28;20068;-90
2021/10/28 18:57:14;;;;;;;10.93;7.20;;;13.30;94.30;;;;;;5014387;28;20046;-89
2021/10/28 18:59:40;;;;;;;12.48;7.80;;;13.20;94.50;;;;;;5035243;28;20099;-90
2021/10/28 19:02:07;;;;;;;11.32;7.45;;;13.20;94.40;;;;;;5017533;28;20060;-90
2021/10/28 19:04:34;;;;;;;11.32;7.50;;;13.20;94.20;;;;;;5016503;28;20493;-88
2021/10/28 19:07:00;;;;;;;11.48;7.70;;;13.20;94.20;;;;;;5035860;28;20049;-89
2021/10/28 19:09:26;;;;;;;10.32;7.22;;;13.20;94.30;;;;;;5036438;28;20045;-89
2021/10/28 19:11:52;;;;;;;12.93;8.25;;;13.20;94.50;;;;;;5017929;28;20041;-89
2021/10/28 19:14:18;;;;;;;12.07;8.18;;;13.10;94.30;;;;;;5018811;28;20154;-89
2021/10/28 19:16:44;;;;;;;11.32;7.93;;;13.10;94.10;;;;;;5018725;28;20049;-89
2021/10/28 19:19:10;;;;;;;10.95;8.13;;;13.10;94.40;;;;;;5017241;28;20041;-88
2021/10/28 19:21:36;;;;;;;10.13;7.65;;;13.00;94.50;;;;;;5036454;28;20396;-87
2021/10/28 19:24:02;;;;;;;11.07;7.10;;;13.00;94.50;;;;;;5030169;28;20120;-90
2021/10/28 19:26:27;;;;;;;13.40;8.02;;;12.90;94.60;;;;;;5012519;28;20037;-83
2021/10/28 19:28:53;;;;;;;11.40;7.80;;;12.90;94.40;;;;;;5017555;28;20041;-83
2021/10/28 19:31:26;;;;;;;12.80;8.05;;;12.90;94.50;;;;;;5017399;28;20045;-83
2021/10/28 19:33:58;;;;;;;11.98;8.32;;;12.80;94.60;;;;;;5029286;28;20123;-82
2021/10/28 19:36:30;;;;;;;13.68;8.43;;;12.80;94.50;;;;;;5034166;28;20053;-82
2021/10/28 19:39:16;;;;;;;12.38;7.85;;;12.80;94.60;;;;;;5019808;28;20068;-82
2021/10/28 19:41:54;;;;;;;13.00;8.40;;;12.70;94.60;;;;;;5016909;28;20049;-82
2021/10/28 19:47:13;;;;;;;14.57;8.68;;;12.70;94.70;;;;;;5014546;28;20516;-87
2021/10/28 19:49:42;;;;;;;12.82;8.23;;;12.60;94.70;;;;;;5016814;28;20056;-86
2021/10/28 19:52:08;;;;;;;14.43;8.68;;;12.70;94.90;;;;;;5032553;28;20064;-89
2021/10/28 19:54:38;;;;;;;12.68;8.75;;;12.60;94.60;;;;;;5016494;28;20033;-91
2021/10/28 19:57:05;;;;;;;11.30;8.30;;;12.60;94.70;;;;;;5002913;28;20592;-90
2021/10/28 19:59:33;;;;;;;16.38;10.30;;;12.50;94.70;;;;;;4993875;28;20046;-89
2021/10/28 20:02:04;;;;;;;13.20;9.25;;;12.50;94.60;;;;;;4994626;28;20433;-89
2021/10/28 20:04:48;;;;;;;14.80;8.38;;;12.50;94.70;;;;;;4990779;28;20042;-88
2021/10/28 20:07:24;;;;;;;12.48;9.07;;;12.50;94.90;;;;;;4985618;28;20387;-88
2021/10/28 20:20:46;;;;;;;16.63;9.90;;;12.30;94.50;;;;;;4990795;28;20050;-88
2021/10/28 20:23:12;;;;;;;15.70;9.45;;;12.30;94.60;;;;;;4993086;28;20038;-88
2021/10/28 20:25:38;;;;;;;15.30;9.85;;;12.30;94.70;;;;;;4993613;28;20409;-89
2021/10/28 20:28:05;;;;;;;14.65;10.43;;;12.30;94.80;;;;;;4984480;28;20427;-89
2021/10/28 20:30:40;;;;;;;13.57;9.38;;;12.30;94.80;;;;;;4991799;28;20430;-88
2021/10/28 20:33:05;;;;;;;13.07;9.27;;;12.30;94.80;;;;;;4995697;28;20500;-88
2021/10/28 20:35:54;;;;;;;16.10;10.80;;;12.30;95.10;;;;;;4995894;28;20046;-88
2021/10/28 20:38:20;;;;;;;14.82;10.13;;;12.20;95.00;;;;;;4982826;28;20106;-88
2021/10/28 20:40:46;;;;;;;14.63;10.13;;;12.20;95.00;;;;;;4996243;28;20097;-88
2021/10/28 20:43:15;;;;;;;17.15;11.25;;;12.20;95.00;;;;;;4996089;28;20030;-88
2021/10/28 20:45:42;;;;;;;14.77;10.63;;;12.20;95.00;;;;;;4984751;28;20458;-88
2021/10/28 20:48:09;;;;;;;16.98;11.23;;;12.20;94.90;;;;;;4983612;28;20042;-88
2021/10/28 20:50:38;;;;;;;15.80;10.88;;;12.20;94.80;;;;;;4994979;28;20068;-88
2021/10/28 20:53:05;;;;;;;15.45;10.05;;;12.10;94.80;;;;;;4995011;28;20042;-88
2021/10/28 20:55:31;;;;;;;14.80;10.70;;;12.10;95.00;;;;;;4995483;28;20049;-88
2021/10/28 20:57:58;;;;;;;13.77;10.45;;;12.10;94.90;;;;;;4994729;28;20050;-87
2021/10/28 21:00:26;;;;;;;15.45;10.95;;;12.10;94.80;;;;;;4990838;28;20046;-88
2021/10/28 21:02:54;;;;;;;14.88;10.18;;;12.00;94.70;;;;;;4996114;28;20073;-89
2021/10/28 21:05:24;;;;;;;16.63;11.35;;;12.10;94.70;;;;;;4989726;28;20051;-87
2021/10/28 21:07:51;;;;;;;14.70;10.63;;;12.00;94.70;;;;;;4996046;28;20039;-88